Time;durP1;ratioP1;P1;durP2;ratioP2;P2;SDS_P1;SDS_P2;PMS_P1;PMS_P2;Temp;Humidity;BMP_temperature;BMP_pressure;BME280_temperature;BME280_humidity;BME280_pressure;Samples;Min_cycle;Max_cycle;Signal;HPM_P1;HPM_P2
2023/09/26 00:00:21;;;;;;;0.68;0.65;;;9.40;61.20;;;;;;4966583;28;20028;-84
2023/09/26 00:02:53;;;;;;;0.38;0.38;;;9.40;63.30;;;;;;4957276;28;20043;-83
2023/09/26 00:05:20;;;;;;;0.52;0.47;;;9.30;67.80;;;;;;4965939;28;20039;-84
2023/09/26 00:07:48;;;;;;;0.57;0.55;;;9.30;84.90;;;;;;4979955;28;20034;-84
2023/09/26 00:10:15;;;;;;;0.40;0.40;;;9.30;93.20;;;;;;4963124;28;20069;-85
2023/09/26 00:12:42;;;;;;;0.47;0.47;;;9.40;94.90;;;;;;4956255;28;20043;-85
2023/09/26 00:15:08;;;;;;;0.20;0.20;;;9.40;91.20;;;;;;4959598;28;20069;-84
2023/09/26 00:17:34;;;;;;;0.43;0.43;;;9.30;77.10;;;;;;4955242;28;20492;-84
2023/09/26 00:20:04;;;;;;;0.52;0.30;;;9.30;81.10;;;;;;4960933;28;20046;-84
2023/09/26 00:22:31;;;;;;;0.20;0.20;;;9.30;91.50;;;;;;4952731;28;20131;-85
2023/09/26 00:24:57;;;;;;;0.65;0.50;;;9.30;54.40;;;;;;4951687;28;20282;-86
2023/09/26 00:27:23;;;;;;;0.28;0.28;;;9.20;50.40;;;;;;4954498;28;20030;-85
2023/09/26 00:29:49;;;;;;;0.38;0.35;;;9.30;65.10;;;;;;4956940;28;20045;-85
2023/09/26 00:32:18;;;;;;;0.40;0.40;;;9.20;70.10;;;;;;4958643;28;20066;-85
2023/09/26 00:34:44;;;;;;;0.35;0.35;;;9.30;72.00;;;;;;4972373;28;20051;-84
2023/09/26 00:37:10;;;;;;;0.43;0.43;;;9.20;63.00;;;;;;4971748;28;20038;-84
2023/09/26 00:39:37;;;;;;;0.32;0.22;;;9.20;61.60;;;;;;4962791;28;20043;-85
2023/09/26 00:42:03;;;;;;;0.10;0.10;;;9.20;55.80;;;;;;4977027;28;20054;-85
2023/09/26 00:44:30;;;;;;;0.50;0.50;;;9.20;25.50;;;;;;4975755;28;20479;-85
2023/09/26 00:46:59;;;;;;;0.20;0.20;;;9.10;17.00;;;;;;4959545;28;20034;-84
2023/09/26 00:49:28;;;;;;;0.43;0.35;;;9.00;24.40;;;;;;4969301;28;20034;-84
2023/09/26 00:51:56;;;;;;;0.50;0.30;;;9.00;49.40;;;;;;4960103;28;20476;-85
2023/09/26 00:54:22;;;;;;;0.32;0.17;;;9.00;62.00;;;;;;4959433;28;20038;-85
2023/09/26 00:56:48;;;;;;;0.60;0.52;;;8.90;46.20;;;;;;4956568;28;20142;-84
2023/09/26 00:59:15;;;;;;;0.73;0.73;;;8.80;56.00;;;;;;4964928;28;20058;-84
2023/09/26 01:01:45;;;;;;;0.93;0.65;;;8.70;83.10;;;;;;4979292;28;20043;-84
2023/09/26 01:04:12;;;;;;;1.05;0.82;;;8.70;98.00;;;;;;4961902;28;20098;-84
2023/09/26 01:06:38;;;;;;;0.45;0.45;;;8.70;99.90;;;;;;4956287;28;20046;-84
2023/09/26 01:09:06;;;;;;;0.32;0.32;;;8.80;99.90;;;;;;4975941;28;20047;-84
2023/09/26 01:11:32;;;;;;;0.73;0.73;;;8.80;99.90;;;;;;4943888;28;20061;-85
2023/09/26 01:13:58;;;;;;;0.30;0.30;;;8.80;94.10;;;;;;4963036;28;20117;-84
2023/09/26 01:16:24;;;;;;;0.30;0.30;;;8.80;93.20;;;;;;4959924;28;20058;-84
2023/09/26 01:18:51;;;;;;;0.57;0.40;;;8.80;95.30;;;;;;4960695;28;20038;-84
2023/09/26 01:21:17;;;;;;;0.38;0.38;;;8.90;91.90;;;;;;4960573;28;20123;-84
2023/09/26 01:23:48;;;;;;;1.60;0.65;;;8.80;84.70;;;;;;4975213;28;20491;-84
2023/09/26 01:26:15;;;;;;;0.47;0.47;;;8.90;66.00;;;;;;4959426;28;20044;-86
2023/09/26 01:28:42;;;;;;;0.65;0.65;;;8.80;59.20;;;;;;4959710;28;20070;-85
2023/09/26 01:31:09;;;;;;;0.93;0.75;;;8.80;59.70;;;;;;4937070;28;20047;-85
2023/09/26 01:33:35;;;;;;;0.28;0.28;;;8.80;66.10;;;;;;4959285;28;20056;-85
2023/09/26 01:36:02;;;;;;;3.22;0.50;;;8.80;61.60;;;;;;4978603;28;20054;-85
2023/09/26 01:38:28;;;;;;;0.65;0.65;;;8.80;61.90;;;;;;4974731;28;20050;-85
2023/09/26 01:40:54;;;;;;;0.13;0.13;;;8.70;59.90;;;;;;4959289;28;20034;-85
2023/09/26 01:43:20;;;;;;;0.85;0.85;;;8.70;61.70;;;;;;4941174;28;20481;-85
2023/09/26 01:45:47;;;;;;;1.40;1.02;;;8.70;77.90;;;;;;4952863;28;20039;-84
2023/09/26 01:48:13;;;;;;;5.05;0.40;;;8.70;65.90;;;;;;4957966;28;20062;-85
2023/09/26 01:50:40;;;;;;;1.88;0.63;;;8.70;62.70;;;;;;4947999;28;20030;-85
2023/09/26 01:53:13;;;;;;;0.20;0.20;;;8.60;51.50;;;;;;4948890;28;20046;-84
2023/09/26 01:55:40;;;;;;;0.50;0.50;;;8.50;58.70;;;;;;4961019;28;20042;-85
2023/09/26 01:58:06;;;;;;;0.40;0.40;;;8.60;72.70;;;;;;4949473;28;20038;-84
2023/09/26 02:00:32;;;;;;;0.75;0.52;;;8.50;74.90;;;;;;4972409;28;20046;-85
2023/09/26 02:02:59;;;;;;;0.40;0.40;;;8.50;80.20;;;;;;4953071;28;20039;-84
2023/09/26 02:05:25;;;;;;;0.60;0.60;;;8.50;86.70;;;;;;4970712;28;20043;-85
2023/09/26 02:07:51;;;;;;;1.08;0.50;;;8.50;81.50;;;;;;4959165;28;20065;-85
2023/09/26 02:10:18;;;;;;;1.10;1.00;;;8.50;79.10;;;;;;4968109;28;20472;-84
2023/09/26 02:12:50;;;;;;;0.63;0.57;;;8.50;90.40;;;;;;4963347;28;20054;-84
2023/09/26 02:15:16;;;;;;;2.45;0.73;;;8.50;79.60;;;;;;4973684;28;20035;-85
2023/09/26 02:17:43;;;;;;;1.10;0.55;;;8.50;84.70;;;;;;4962008;28;20049;-84
2023/09/26 02:20:14;;;;;;;0.60;0.43;;;8.60;97.40;;;;;;4962298;28;20035;-84
2023/09/26 02:22:44;;;;;;;0.90;0.85;;;8.50;91.20;;;;;;4979163;28;20042;-84
2023/09/26 02:25:11;;;;;;;0.38;0.38;;;8.40;66.70;;;;;;4941409;28;20047;-84
2023/09/26 02:27:38;;;;;;;1.65;0.95;;;8.50;82.10;;;;;;4975137;28;20038;-84
2023/09/26 02:30:06;;;;;;;0.90;0.63;;;8.50;87.60;;;;;;4969761;28;20030;-84
2023/09/26 02:32:32;;;;;;;0.75;0.60;;;8.50;83.50;;;;;;4971199;28;20055;-86
2023/09/26 02:34:59;;;;;;;0.90;0.45;;;8.50;95.80;;;;;;4971910;28;20050;-84
2023/09/26 02:37:25;;;;;;;0.30;0.30;;;8.40;98.00;;;;;;4951336;28;20424;-87
2023/09/26 02:39:51;;;;;;;0.47;0.40;;;8.30;91.90;;;;;;4958356;28;20059;-84
2023/09/26 02:42:17;;;;;;;0.60;0.60;;;8.30;87.70;;;;;;4946878;28;20377;-83
2023/09/26 02:44:44;;;;;;;0.75;0.65;;;8.20;90.60;;;;;;4951190;28;20046;-84
2023/09/26 02:47:10;;;;;;;1.10;1.10;;;8.20;96.80;;;;;;4946636;28;20058;-85
2023/09/26 02:49:36;;;;;;;0.28;0.28;;;8.20;99.90;;;;;;4955434;28;20046;-84
2023/09/26 02:52:03;;;;;;;0.25;0.25;;;8.20;99.90;;;;;;4958346;28;20047;-84
2023/09/26 02:54:29;;;;;;;0.47;0.47;;;8.20;96.90;;;;;;4952015;28;20492;-83
2023/09/26 02:56:58;;;;;;;0.43;0.40;;;8.20;92.20;;;;;;4957848;28;20062;-84
2023/09/26 02:59:25;;;;;;;0.85;0.77;;;8.20;94.70;;;;;;4968940;28;20038;-84
2023/09/26 03:01:52;;;;;;;0.47;0.47;;;8.20;98.60;;;;;;4959186;28;20054;-84
2023/09/26 03:04:18;;;;;;;0.43;0.43;;;8.10;97.60;;;;;;4977481;28;20050;-83
2023/09/26 03:06:44;;;;;;;1.33;0.95;;;8.10;95.40;;;;;;4957570;28;20052;-84
2023/09/26 03:09:11;;;;;;;0.60;0.60;;;8.10;98.60;;;;;;4977453;28;20054;-84
2023/09/26 03:11:38;;;;;;;1.00;0.77;;;8.10;99.90;;;;;;4959730;28;20047;-84
2023/09/26 03:14:04;;;;;;;0.30;0.20;;;8.10;99.90;;;;;;4957657;28;20039;-83
2023/09/26 03:16:30;;;;;;;1.75;1.02;;;8.10;99.10;;;;;;4988312;28;20031;-83
2023/09/26 03:18:56;;;;;;;0.73;0.60;;;8.10;99.10;;;;;;4984427;28;20034;-84
2023/09/26 03:21:26;;;;;;;1.25;0.95;;;8.00;99.90;;;;;;4957721;28;20058;-84
2023/09/26 03:23:52;;;;;;;0.28;0.28;;;8.00;99.90;;;;;;4963370;28;20030;-85
2023/09/26 03:26:18;;;;;;;0.20;0.20;;;8.10;99.90;;;;;;4965638;28;20035;-85
2023/09/26 03:28:44;;;;;;;0.20;0.20;;;8.10;92.40;;;;;;4956791;28;20043;-84
2023/09/26 03:31:12;;;;;;;1.90;0.70;;;8.00;70.40;;;;;;4959599;28;20042;-84
2023/09/26 03:33:39;;;;;;;0.60;0.60;;;8.00;81.30;;;;;;4941929;28;20524;-84
2023/09/26 03:36:05;;;;;;;1.27;1.13;;;8.00;90.80;;;;;;4971848;28;20410;-83
2023/09/26 03:38:32;;;;;;;0.20;0.20;;;8.00;87.10;;;;;;4961171;28;20384;-85
2023/09/26 03:41:03;;;;;;;0.20;0.20;;;8.00;75.90;;;;;;4948484;28;20047;-85
2023/09/26 03:43:30;;;;;;;0.30;0.30;;;7.90;57.00;;;;;;4961605;28;20038;-84
2023/09/26 03:46:07;;;;;;;1.85;1.38;;;7.80;51.60;;;;;;4973476;28;20034;-84
2023/09/26 03:48:34;;;;;;;0.82;0.57;;;7.80;61.80;;;;;;4947937;28;20440;-85
2023/09/26 03:51:08;;;;;;;3.17;1.45;;;7.70;67.70;;;;;;4955561;28;20039;-84
2023/09/26 03:53:35;;;;;;;0.77;0.45;;;7.60;80.00;;;;;;4959359;28;20043;-87
2023/09/26 03:56:02;;;;;;;1.05;0.68;;;7.70;98.00;;;;;;4967929;28;20030;-85
2023/09/26 03:58:28;;;;;;;0.73;0.57;;;7.70;99.90;;;;;;4978011;28;20038;-84
2023/09/26 04:00:54;;;;;;;0.90;0.70;;;7.80;99.90;;;;;;4968211;28;20396;-85
2023/09/26 04:03:21;;;;;;;0.17;0.17;;;7.80;99.90;;;;;;4962301;28;20050;-83
2023/09/26 04:05:56;;;;;;;1.00;0.17;;;7.70;99.90;;;;;;4966926;28;20046;-84
2023/09/26 04:08:22;;;;;;;1.55;1.08;;;7.70;99.90;;;;;;4981973;28;20057;-84
2023/09/26 04:10:48;;;;;;;0.45;0.45;;;7.70;99.90;;;;;;4973988;28;20053;-85
2023/09/26 04:13:14;;;;;;;0.90;0.90;;;7.80;99.90;;;;;;4959147;28;20053;-84
2023/09/26 04:15:40;;;;;;;1.92;0.65;;;7.70;75.90;;;;;;4980699;28;20038;-84
2023/09/26 04:18:07;;;;;;;1.65;1.33;;;7.60;62.40;;;;;;4970938;28;20054;-84
2023/09/26 04:20:37;;;;;;;4.18;3.10;;;7.60;87.20;;;;;;4967011;28;20483;-86
2023/09/26 04:23:03;;;;;;;3.50;2.22;;;7.60;97.30;;;;;;4948708;28;20043;-85
2023/09/26 04:25:33;;;;;;;3.22;2.88;;;7.60;88.60;;;;;;4964484;28;20050;-84
2023/09/26 04:27:59;;;;;;;1.50;1.33;;;7.50;70.50;;;;;;4973300;28;20034;-85
2023/09/26 04:30:26;;;;;;;0.65;0.65;;;7.50;73.30;;;;;;4981264;28;20039;-85
2023/09/26 04:32:52;;;;;;;0.95;0.95;;;7.40;68.90;;;;;;4954051;28;20090;-85
2023/09/26 04:35:18;;;;;;;1.08;0.75;;;7.30;75.80;;;;;;4967446;28;20054;-84
2023/09/26 04:37:44;;;;;;;1.02;0.90;;;7.30;91.60;;;;;;4938350;28;20058;-84
2023/09/26 04:40:11;;;;;;;0.47;0.47;;;7.40;99.90;;;;;;4956830;28;20044;-83
2023/09/26 04:42:48;;;;;;;2.30;2.00;;;7.50;97.40;;;;;;4960328;28;20062;-86
2023/09/26 04:45:14;;;;;;;1.30;1.20;;;7.60;74.60;;;;;;4973831;28;20068;-84
2023/09/26 04:47:41;;;;;;;2.30;1.88;;;7.60;43.40;;;;;;4942560;28;20062;-84
2023/09/26 04:50:08;;;;;;;1.88;1.77;;;7.50;30.00;;;;;;4976142;28;20380;-85
2023/09/26 04:52:36;;;;;;;1.25;1.20;;;7.50;19.30;;;;;;4977684;28;20038;-84
2023/09/26 04:55:04;;;;;;;0.43;0.43;;;7.40;12.60;;;;;;4976509;28;20049;-84
2023/09/26 04:57:30;;;;;;;1.38;1.25;;;7.30;18.50;;;;;;4972580;28;20145;-84
2023/09/26 04:59:57;;;;;;;0.45;0.45;;;7.30;41.90;;;;;;4961239;28;20350;-84
2023/09/26 05:02:23;;;;;;;0.65;0.57;;;7.40;54.60;;;;;;4973928;28;20043;-84
2023/09/26 05:04:49;;;;;;;0.40;0.32;;;7.50;60.30;;;;;;4956466;28;20487;-84
2023/09/26 05:07:16;;;;;;;0.85;0.85;;;7.50;52.20;;;;;;4953486;28;20444;-84
2023/09/26 05:09:42;;;;;;;2.67;1.83;;;7.60;36.20;;;;;;4968588;28;20027;-84
2023/09/26 05:12:08;;;;;;;0.20;0.20;;;7.50;18.60;;;;;;4953543;28;20043;-84
2023/09/26 05:14:34;;;;;;;0.30;0.30;;;7.50;8.50;;;;;;4981436;28;20030;-84
2023/09/26 05:17:00;;;;;;;0.73;0.73;;;7.50;2.40;;;;;;4969607;28;20041;-83
2023/09/26 05:19:27;;;;;;;0.85;0.85;;;7.50;1.00;;;;;;4971023;28;20540;-83
2023/09/26 05:21:54;;;;;;;1.33;0.85;;;7.50;1.00;;;;;;4957725;28;20850;-84
2023/09/26 05:24:22;;;;;;;0.98;0.70;;;7.50;1.00;;;;;;4978191;28;20053;-84
2023/09/26 05:26:49;;;;;;;0.75;0.75;;;7.40;1.00;;;;;;4956943;28;20043;-84
2023/09/26 05:29:15;;;;;;;0.60;0.60;;;7.40;1.00;;;;;;4970226;28;20031;-84
2023/09/26 05:31:41;;;;;;;0.98;0.85;;;7.40;1.00;;;;;;4955497;28;20027;-84
2023/09/26 05:34:07;;;;;;;1.38;1.27;;;7.20;1.00;;;;;;4982208;28;20058;-82
2023/09/26 05:36:34;;;;;;;1.10;0.45;;;7.10;1.00;;;;;;4959874;28;20051;-83
2023/09/26 05:39:00;;;;;;;0.68;0.68;;;7.00;1.00;;;;;;4957190;28;20027;-85
2023/09/26 05:41:26;;;;;;;0.95;0.95;;;7.00;4.70;;;;;;4979013;28;20035;-85
2023/09/26 05:43:52;;;;;;;0.43;0.43;;;7.00;17.40;;;;;;4972849;28;20062;-84
2023/09/26 05:46:19;;;;;;;2.85;1.63;;;6.90;29.50;;;;;;4951697;28;20043;-83
2023/09/26 05:48:45;;;;;;;3.60;1.00;;;7.00;51.60;;;;;;4949320;28;20039;-85
2023/09/26 05:51:11;;;;;;;0.88;0.70;;;7.10;60.20;;;;;;4956719;28;20039;-84
2023/09/26 05:53:38;;;;;;;0.50;0.50;;;7.10;50.80;;;;;;4959277;28;20051;-85
2023/09/26 05:56:04;;;;;;;5.20;1.88;;;7.20;54.40;;;;;;4979722;28;20039;-84
2023/09/26 05:58:31;;;;;;;0.55;0.55;;;7.40;65.90;;;;;;4968126;28;20032;-85
2023/09/26 06:00:57;;;;;;;1.27;0.98;;;7.50;63.90;;;;;;4975632;28;20030;-85
2023/09/26 06:03:23;;;;;;;1.15;1.05;;;7.60;45.90;;;;;;4968302;28;20042;-84
2023/09/26 06:05:50;;;;;;;1.33;0.88;;;7.70;18.80;;;;;;4956889;28;20038;-85
2023/09/26 06:08:16;;;;;;;0.40;0.40;;;7.70;3.40;;;;;;4968372;28;20694;-85
2023/09/26 06:10:42;;;;;;;0.45;0.45;;;7.70;1.00;;;;;;4950860;28;20516;-85
2023/09/26 06:13:09;;;;;;;1.73;1.02;;;7.70;1.00;;;;;;4954824;28;20066;-85
2023/09/26 06:15:35;;;;;;;0.65;0.65;;;7.80;1.00;;;;;;4975039;28;20042;-84
2023/09/26 06:18:01;;;;;;;0.82;0.82;;;7.90;1.00;;;;;;4957457;28;20040;-85
2023/09/26 06:20:28;;;;;;;0.77;0.77;;;7.90;1.00;;;;;;4972627;28;20035;-84
2023/09/26 06:22:55;;;;;;;1.30;1.20;;;8.00;1.00;;;;;;4980181;28;20397;-85
2023/09/26 06:25:22;;;;;;;8.73;1.80;;;8.10;1.00;;;;;;4962394;28;20050;-84
2023/09/26 06:27:49;;;;;;;0.50;0.50;;;8.30;1.00;;;;;;4952745;28;20043;-84
2023/09/26 06:30:15;;;;;;;0.50;0.50;;;8.40;1.00;;;;;;4967975;28;20039;-84
2023/09/26 06:32:42;;;;;;;0.65;0.65;;;8.50;1.00;;;;;;4955414;28;20592;-85
2023/09/26 06:35:08;;;;;;;0.85;0.85;;;8.70;1.00;;;;;;4973043;28;20043;-83
2023/09/26 06:37:34;;;;;;;0.52;0.52;;;8.80;1.00;;;;;;4956305;28;20043;-83
2023/09/26 06:40:04;;;;;;;1.45;1.35;;;9.00;1.00;;;;;;4960798;28;20274;-84
2023/09/26 06:42:31;;;;;;;1.73;1.63;;;9.20;1.00;;;;;;4975156;28;20046;-83
2023/09/26 06:44:58;;;;;;;1.17;1.17;;;9.40;1.00;;;;;;4968563;28;20046;-83
2023/09/26 06:47:27;;;;;;;1.25;1.15;;;9.60;1.00;;;;;;4969173;28;20039;-83
2023/09/26 06:49:56;;;;;;;0.50;0.50;;;9.90;1.00;;;;;;4961904;28;20047;-84
2023/09/26 06:52:23;;;;;;;2.70;0.98;;;10.10;1.00;;;;;;4965353;28;20531;-85
2023/09/26 06:54:50;;;;;;;1.50;1.17;;;10.40;1.00;;;;;;4963090;28;20031;-85
2023/09/26 06:57:20;;;;;;;1.15;1.05;;;10.70;1.00;;;;;;4971300;28;20034;-84
2023/09/26 06:59:50;;;;;;;1.98;1.23;;;11.00;1.00;;;;;;4959548;28;20437;-82
2023/09/26 07:02:16;;;;;;;2.22;0.90;;;11.20;1.00;;;;;;4977228;28;20050;-86
2023/09/26 07:04:43;;;;;;;0.60;0.60;;;11.30;1.00;;;;;;4969787;28;20424;-86
2023/09/26 07:07:10;;;;;;;1.85;1.35;;;11.30;1.00;;;;;;4980947;28;20030;-85
2023/09/26 07:09:36;;;;;;;1.30;1.20;;;11.50;1.00;;;;;;4958726;28;20041;-85
2023/09/26 07:12:03;;;;;;;0.65;0.65;;;11.60;1.00;;;;;;4972346;28;20031;-85
2023/09/26 07:14:33;;;;;;;1.35;1.25;;;11.70;1.00;;;;;;4945848;28;20046;-86
2023/09/26 07:16:59;;;;;;;0.40;0.40;;;11.70;1.00;;;;;;4959896;28;20045;-84
2023/09/26 07:19:33;;;;;;;3.33;1.13;;;11.80;1.00;;;;;;4957381;28;20035;-90
2023/09/26 07:21:59;;;;;;;0.95;0.90;;;11.90;1.00;;;;;;4970494;28;20043;-83
2023/09/26 07:24:25;;;;;;;3.65;1.45;;;12.00;1.00;;;;;;4975438;28;20034;-85
2023/09/26 07:26:52;;;;;;;0.98;0.93;;;12.10;1.00;;;;;;4940291;28;20137;-84
2023/09/26 07:29:18;;;;;;;1.52;1.40;;;12.20;1.00;;;;;;4976404;28;20049;-83
2023/09/26 07:31:45;;;;;;;0.57;0.57;;;12.40;1.00;;;;;;4961385;28;20041;-84
2023/09/26 07:34:12;;;;;;;1.25;1.15;;;12.50;1.00;;;;;;4964878;28;20051;-84
2023/09/26 07:36:38;;;;;;;1.08;0.68;;;12.60;1.00;;;;;;4964202;28;20035;-84
2023/09/26 07:39:05;;;;;;;0.82;0.82;;;12.70;1.00;;;;;;4965071;28;20234;-83
2023/09/26 07:41:31;;;;;;;1.90;1.80;;;12.80;99.90;;;;;;4976760;28;20050;-85
2023/09/26 07:43:58;;;;;;;1.13;0.90;;;12.80;99.90;;;;;;4967137;28;20045;-85
2023/09/26 07:46:24;;;;;;;0.77;0.77;;;13.20;99.90;;;;;;4976939;28;20039;-85
2023/09/26 07:48:51;;;;;;;1.10;0.98;;;13.60;99.90;;;;;;4978762;28;20091;-85
2023/09/26 07:51:17;;;;;;;4.47;0.98;;;14.00;99.90;;;;;;4973165;28;20034;-84
2023/09/26 07:53:43;;;;;;;1.75;1.20;;;14.30;99.90;;;;;;4974287;28;20049;-85
2023/09/26 07:56:10;;;;;;;1.45;1.20;;;14.50;99.90;;;;;;4957570;28;20126;-85
2023/09/26 07:58:37;;;;;;;1.10;0.45;;;15.00;99.90;;;;;;4958520;28;20045;-84
2023/09/26 08:01:08;;;;;;;2.17;1.38;;;15.50;21.60;;;;;;4943008;28;20042;-85
2023/09/26 08:03:35;;;;;;;0.63;0.40;;;15.70;1.00;;;;;;4946391;28;20551;-85
2023/09/26 08:06:06;;;;;;;1.05;0.98;;;15.70;1.00;;;;;;4968591;28;20041;-85
2023/09/26 08:08:33;;;;;;;1.52;0.68;;;15.70;1.00;;;;;;4979597;28;20475;-85
2023/09/26 08:11:08;;;;;;;0.55;0.55;;;15.80;1.00;;;;;;4977002;28;20045;-84
2023/09/26 08:13:35;;;;;;;0.47;0.40;;;16.00;1.00;;;;;;4976225;28;20035;-86
2023/09/26 08:16:01;;;;;;;3.80;0.85;;;16.10;1.00;;;;;;4970066;28;20035;-84
2023/09/26 08:18:27;;;;;;;0.85;0.63;;;15.70;1.00;;;;;;4944502;28;20042;-85
2023/09/26 08:20:57;;;;;;;0.88;0.80;;;15.80;1.00;;;;;;4961353;28;20464;-84
2023/09/26 08:23:28;;;;;;;1.35;0.95;;;15.60;1.00;;;;;;4969323;28;20031;-85
2023/09/26 08:26:12;;;;;;;0.57;0.57;;;15.50;1.00;;;;;;4954711;28;20038;-85
2023/09/26 08:28:39;;;;;;;4.03;1.98;;;16.00;1.00;;;;;;4973900;28;20042;-86
2023/09/26 08:31:07;;;;;;;3.38;1.25;;;16.70;1.00;;;;;;4959344;28;20033;-87
2023/09/26 08:33:34;;;;;;;1.17;1.08;;;17.30;1.00;;;;;;4976019;28;20055;-87
2023/09/26 08:36:01;;;;;;;1.73;1.17;;;17.80;99.90;;;;;;4975873;28;20027;-87
2023/09/26 08:38:27;;;;;;;2.25;0.70;;;17.90;99.90;;;;;;4960363;28;20039;-86
2023/09/26 08:40:57;;;;;;;1.85;1.05;;;18.20;99.90;;;;;;4972676;28;20050;-85
2023/09/26 08:43:25;;;;;;;1.08;1.05;;;18.50;99.90;;;;;;4950025;28;20052;-85
2023/09/26 08:45:53;;;;;;;0.65;0.65;;;18.10;99.90;;;;;;4949076;28;20042;-86
2023/09/26 08:48:19;;;;;;;0.65;0.65;;;18.20;99.90;;;;;;4955102;28;20043;-86
2023/09/26 08:50:47;;;;;;;2.05;1.00;;;18.20;99.90;;;;;;4979128;28;20030;-86
2023/09/26 08:53:14;;;;;;;6.05;1.05;;;18.00;99.90;;;;;;4957061;28;20043;-86
2023/09/26 08:55:41;;;;;;;1.98;1.70;;;17.90;99.90;;;;;;4976133;28;20038;-84
2023/09/26 08:58:08;;;;;;;1.52;1.25;;;17.90;99.90;;;;;;4968212;28;20034;-86
2023/09/26 09:00:35;;;;;;;0.85;0.77;;;17.30;99.90;;;;;;4975684;28;20043;-85
2023/09/26 09:03:01;;;;;;;1.10;1.00;;;17.50;99.90;;;;;;4944643;28;20046;-86
2023/09/26 09:05:27;;;;;;;0.90;0.90;;;17.50;99.90;;;;;;4951040;28;20043;-85
2023/09/26 09:07:53;;;;;;;1.15;0.93;;;18.00;99.90;;;;;;4939707;28;20476;-84
2023/09/26 09:10:21;;;;;;;2.42;1.38;;;18.60;99.90;;;;;;4951198;28;20038;-84
2023/09/26 09:12:47;;;;;;;1.45;0.77;;;19.10;99.90;;;;;;4973393;28;20042;-86
2023/09/26 09:15:22;;;;;;;0.60;0.60;;;19.50;99.90;;;;;;4980219;28;20053;-83
2023/09/26 09:17:52;;;;;;;2.13;1.27;;;18.90;99.90;;;;;;4976849;28;20046;-84
2023/09/26 09:20:32;;;;;;;1.60;1.48;;;18.60;99.90;;;;;;4970043;28;20035;-83
2023/09/26 09:23:04;;;;;;;1.98;1.83;;;18.30;99.90;;;;;;4971046;28;20038;-83
2023/09/26 09:25:38;;;;;;;1.98;1.75;;;18.30;99.90;;;;;;4975085;28;20035;-84
2023/09/26 09:28:07;;;;;;;1.20;1.13;;;18.90;99.90;;;;;;4965428;28;20338;-85
2023/09/26 09:30:43;;;;;;;2.08;1.63;;;19.20;99.90;;;;;;4968692;28;20156;-84
2023/09/26 09:33:09;;;;;;;7.05;1.38;;;19.60;99.90;;;;;;4955855;28;20477;-85
2023/09/26 09:35:39;;;;;;;2.85;2.15;;;19.70;99.90;;;;;;4967512;28;20043;-84
2023/09/26 09:38:08;;;;;;;1.27;1.05;;;19.90;99.90;;;;;;4963563;28;20050;-85
2023/09/26 09:40:35;;;;;;;2.67;0.73;;;19.60;99.90;;;;;;4936957;28;20043;-84
2023/09/26 09:43:01;;;;;;;3.40;2.28;;;19.70;99.90;;;;;;4969573;28;20038;-88
2023/09/26 09:45:31;;;;;;;1.40;1.30;;;19.30;99.90;;;;;;4952172;28;20041;-83
2023/09/26 09:48:03;;;;;;;1.20;0.95;;;19.50;99.90;;;;;;4973304;28;20026;-84
2023/09/26 09:50:32;;;;;;;3.10;1.30;;;19.70;99.90;;;;;;4970671;28;20042;-85
2023/09/26 09:53:01;;;;;;;1.17;0.98;;;19.40;99.90;;;;;;4947303;28;20050;-84
2023/09/26 09:55:38;;;;;;;2.85;1.15;;;19.20;99.90;;;;;;4972561;28;20039;-81
2023/09/26 09:58:11;;;;;;;0.80;0.80;;;19.40;99.90;;;;;;4974056;28;20043;-84
2023/09/26 10:00:40;;;;;;;2.20;1.05;;;19.50;99.90;;;;;;4932365;28;20039;-84
2023/09/26 10:03:06;;;;;;;0.93;0.93;;;19.80;99.90;;;;;;4975336;28;20042;-84
2023/09/26 10:05:36;;;;;;;2.53;1.55;;;19.90;99.90;;;;;;4975086;28;20027;-85
2023/09/26 10:08:05;;;;;;;1.05;0.88;;;19.30;99.90;;;;;;4942249;28;20049;-85
2023/09/26 10:10:32;;;;;;;1.17;0.45;;;19.30;99.90;;;;;;4965900;28;20058;-85
2023/09/26 10:12:58;;;;;;;2.03;1.25;;;19.50;99.90;;;;;;4952518;28;20046;-86
2023/09/26 10:15:24;;;;;;;1.88;1.35;;;19.70;99.90;;;;;;4955567;28;20054;-84
2023/09/26 10:17:51;;;;;;;1.50;1.40;;;19.50;99.90;;;;;;4973154;28;20373;-85
2023/09/26 10:20:17;;;;;;;1.50;1.27;;;19.40;99.90;;;;;;4969690;28;20391;-85
2023/09/26 10:22:44;;;;;;;4.55;0.80;;;19.60;99.90;;;;;;4985491;28;20031;-86
2023/09/26 10:25:18;;;;;;;0.65;0.65;;;19.80;99.90;;;;;;4958629;28;20038;-85
2023/09/26 10:27:50;;;;;;;0.55;0.55;;;19.90;99.90;;;;;;4984882;28;20356;-84
2023/09/26 10:30:19;;;;;;;0.63;0.52;;;19.80;99.90;;;;;;4999475;28;20041;-85
2023/09/26 10:32:46;;;;;;;0.80;0.70;;;19.80;99.90;;;;;;4989442;28;20031;-83
2023/09/26 10:35:15;;;;;;;1.65;0.60;;;19.90;99.90;;;;;;4988859;28;20755;-85
2023/09/26 10:38:00;;;;;;;0.98;0.90;;;20.10;99.90;;;;;;4964458;28;20036;-83
2023/09/26 10:40:27;;;;;;;0.63;0.63;;;20.30;99.90;;;;;;4989918;28;20030;-84
2023/09/26 10:42:54;;;;;;;0.45;0.45;;;20.50;99.90;;;;;;4982522;28;20046;-85
2023/09/26 10:45:20;;;;;;;0.60;0.50;;;20.70;99.90;;;;;;4950135;28;20038;-84
2023/09/26 10:47:46;;;;;;;0.75;0.63;;;20.70;99.90;;;;;;4963528;28;20039;-84
2023/09/26 10:50:13;;;;;;;0.50;0.50;;;20.80;99.90;;;;;;4960360;28;20581;-85
2023/09/26 10:52:47;;;;;;;0.57;0.45;;;21.00;99.90;;;;;;4962074;28;20035;-85
2023/09/26 10:55:15;;;;;;;2.08;0.93;;;21.20;99.90;;;;;;4964683;28;20039;-85
2023/09/26 10:57:44;;;;;;;0.30;0.30;;;21.10;96.50;;;;;;4941728;28;20054;-84
2023/09/26 11:00:12;;;;;;;0.30;0.30;;;21.20;98.20;;;;;;4968394;28;20042;-86
2023/09/26 11:02:41;;;;;;;0.38;0.38;;;21.30;93.20;;;;;;4976963;28;20039;-85
2023/09/26 11:05:12;;;;;;;1.27;1.17;;;21.20;99.90;;;;;;4959020;28;20151;-85
2023/09/26 11:07:40;;;;;;;0.40;0.40;;;21.20;99.80;;;;;;4954680;28;20039;-85
2023/09/26 11:10:11;;;;;;;0.68;0.68;;;21.30;94.10;;;;;;4970690;28;20035;-86
2023/09/26 11:12:37;;;;;;;1.35;0.73;;;21.40;96.90;;;;;;4947730;28;20066;-84
2023/09/26 11:15:04;;;;;;;0.77;0.60;;;21.60;91.40;;;;;;4978443;28;20042;-84
2023/09/26 11:17:32;;;;;;;2.47;1.02;;;21.50;86.10;;;;;;4958123;28;20042;-84
2023/09/26 11:19:59;;;;;;;0.75;0.75;;;21.50;93.00;;;;;;4960533;28;20043;-85
2023/09/26 11:22:26;;;;;;;0.50;0.43;;;21.60;92.70;;;;;;4970472;28;20455;-84
2023/09/26 11:25:08;;;;;;;1.23;0.77;;;21.60;91.60;;;;;;4958252;28;20051;-83
2023/09/26 11:27:39;;;;;;;1.20;0.73;;;21.80;84.60;;;;;;4952346;28;20137;-84
2023/09/26 11:30:14;;;;;;;0.65;0.65;;;21.80;82.80;;;;;;4955812;28;20046;-84
2023/09/26 11:32:42;;;;;;;3.53;0.63;;;21.80;69.20;;;;;;4981734;28;20035;-82
2023/09/26 11:35:09;;;;;;;0.50;0.43;;;21.80;80.40;;;;;;4964805;28;20051;-83
2023/09/26 11:37:38;;;;;;;0.30;0.30;;;21.70;82.70;;;;;;4965150;28;20035;-81
2023/09/26 11:40:11;;;;;;;0.88;0.85;;;21.70;90.30;;;;;;4968231;28;20054;-82
2023/09/26 11:42:47;;;;;;;0.55;0.43;;;21.80;96.70;;;;;;4957354;28;20057;-82
2023/09/26 11:45:21;;;;;;;0.57;0.40;;;21.80;72.30;;;;;;4974992;28;20039;-82
2023/09/26 11:47:48;;;;;;;0.20;0.20;;;21.60;77.20;;;;;;4970990;28;20050;-82
2023/09/26 11:50:14;;;;;;;0.85;0.77;;;21.70;94.90;;;;;;4968991;28;20043;-82
2023/09/26 11:52:41;;;;;;;1.23;0.47;;;21.80;85.90;;;;;;4972296;28;20039;-84
2023/09/26 11:55:07;;;;;;;0.35;0.35;;;22.10;89.80;;;;;;4965803;28;20046;-82
2023/09/26 11:57:34;;;;;;;0.43;0.35;;;22.20;80.40;;;;;;4950156;28;20157;-82
2023/09/26 12:00:01;;;;;;;0.30;0.30;;;22.30;61.20;;;;;;4967711;28;20035;-80
2023/09/26 12:02:27;;;;;;;0.30;0.30;;;22.30;51.00;;;;;;4971663;28;20047;-83
2023/09/26 12:04:54;;;;;;;0.30;0.30;;;22.30;44.10;;;;;;4955648;28;20058;-77
2023/09/26 12:07:20;;;;;;;0.57;0.35;;;22.40;61.20;;;;;;4975469;28;20057;-80
2023/09/26 12:09:47;;;;;;;0.68;0.68;;;22.50;48.20;;;;;;4960975;28;20035;-78
2023/09/26 12:12:14;;;;;;;0.38;0.38;;;22.60;47.40;;;;;;4967587;28;20038;-81
2023/09/26 12:14:42;;;;;;;0.75;0.50;;;22.80;36.60;;;;;;4959453;28;20489;-81
2023/09/26 12:17:09;;;;;;;3.08;0.55;;;22.70;20.60;;;;;;4973072;28;20030;-79
2023/09/26 12:19:36;;;;;;;0.30;0.30;;;22.70;19.70;;;;;;4958750;28;20097;-81
2023/09/26 12:22:02;;;;;;;0.20;0.20;;;22.80;16.10;;;;;;4972718;28;20037;-79
2023/09/26 12:24:29;;;;;;;0.40;0.40;;;22.80;16.10;;;;;;4964350;28;20031;-79
2023/09/26 12:26:56;;;;;;;0.65;0.65;;;22.90;15.80;;;;;;4965506;28;20461;-81
2023/09/26 12:29:22;;;;;;;1.35;0.75;;;22.90;18.80;;;;;;4959483;28;20027;-78
2023/09/26 12:31:48;;;;;;;3.83;0.73;;;23.10;16.10;;;;;;4985601;28;20030;-79
2023/09/26 12:34:14;;;;;;;0.20;0.20;;;23.10;14.90;;;;;;4976290;28;20141;-79
2023/09/26 12:36:41;;;;;;;0.32;0.25;;;23.30;5.20;;;;;;4976368;28;20038;-80
2023/09/26 12:39:09;;;;;;;0.63;0.40;;;23.20;7.30;;;;;;4969043;28;20139;-79
2023/09/26 12:41:35;;;;;;;0.20;0.20;;;23.30;1.00;;;;;;4978120;28;20030;-77
2023/09/26 12:44:01;;;;;;;2.65;0.70;;;23.40;1.00;;;;;;4974778;28;20057;-78
2023/09/26 12:46:27;;;;;;;0.32;0.32;;;23.20;2.90;;;;;;4970598;28;20031;-80
2023/09/26 12:48:54;;;;;;;1.95;1.05;;;23.30;1.70;;;;;;4967765;28;20039;-79
2023/09/26 12:51:20;;;;;;;0.30;0.30;;;23.40;1.00;;;;;;4978336;28;20467;-79
2023/09/26 12:53:47;;;;;;;0.30;0.30;;;23.30;1.00;;;;;;4980506;28;20395;-78
2023/09/26 12:56:13;;;;;;;0.50;0.50;;;23.20;1.00;;;;;;4959391;28;20239;-80